»·PEaware :: PSV457 KLAS-KSFO

PSV457 :: KLAS-KSFO

FLIGHT INFORMATION

Flight Status: Arrived
Operator:
Power Set Virtual (website)
More flights by this operator :: More flights under this callsign
Pilot: Greg L. (25311)
Aircraft: CESSNA 550 CITATION 2/S2/BRAVO
(C550)
More flights by this aircraft type
Origin: KLAS McCarran Intl
United States
Destination: KSFO San Francisco Intl
United States
More flights between these airports :: More routes between these airports
Route: +SHEAD1 KENNO TROSE MOD9
File this flight plan on PilotEdge
Remarks: PSV Stands for Power
Altitude:
(Current/Filed)
20,000ft
Speed:
(Current/Filed)
225kts
Departed: 17-May-20 08:28 AM
Arrived: 17-May-20 09:47 AM
Distance/Time
Traveled:
359nm/1:19
Distance/Time
To Go:
Arrived

Flight Plot

Page will automatically refresh every two minutes.


Map Options




Map Legend


Flown Route
Filed Route
Departure Airport
Arrival Airport
Navaid (VOR, NDB)
Fix

Horizontal Profiles

Position Reports

Time Latitude Longitude Heading Altitude Ground
Speed
17-May-20 08:10 36.084071 -115.169884 179 2162ft 0kts
17-May-20 08:11 36.084071 -115.169884 179 2162ft 0kts
17-May-20 08:12 36.084071 -115.169884 179 2162ft 0kts
17-May-20 08:13 36.084071 -115.169884 179 2162ft 0kts
17-May-20 08:14 36.084071 -115.169884 179 2162ft 0kts
17-May-20 08:15 36.084071 -115.169884 179 2162ft 0kts
17-May-20 08:16 36.084071 -115.169884 179 2162ft 0kts
17-May-20 08:17 36.084071 -115.169884 179 2162ft 0kts
17-May-20 08:18 36.084071 -115.169884 179 2162ft 0kts
17-May-20 08:19 36.084071 -115.169884 179 2162ft 0kts
17-May-20 08:20 36.084071 -115.169884 179 2162ft 0kts
17-May-20 08:21 36.084071 -115.169884 179 2162ft 0kts
17-May-20 08:22 36.083400 -115.169075 102 2161ft 20kts
17-May-20 08:23 36.086821 -115.165304 25 2139ft 33kts
17-May-20 08:23 36.092766 -115.161887 25 2111ft 24kts
17-May-20 08:25 36.096887 -115.159541 28 2096ft 17kts
17-May-20 08:26 36.099807 -115.157525 78 2088ft 0kts
17-May-20 08:26 36.099165 -115.156738 202 2087ft 11kts
17-May-20 08:28 36.059129 -115.180776 202 3809ft 222kts
17-May-20 08:28 36.015850 -115.208022 223 6523ft 214kts
17-May-20 08:29 35.979928 -115.281567 239 6903ft 263kts
17-May-20 08:30 35.938967 -115.341111 222 8826ft 222kts
17-May-20 08:31 35.893467 -115.400292 241 9152ft 248kts
17-May-20 08:32 35.886592 -115.482897 267 10909ft 271kts
17-May-20 08:33 35.889109 -115.586845 268 10906ft 325kts
17-May-20 08:34 35.891318 -115.690569 266 12626ft 257kts
17-May-20 08:35 35.892535 -115.773774 266 14013ft 270kts
17-May-20 08:36 35.894149 -115.875369 267 14043ft 314kts
17-May-20 08:37 35.906648 -115.979657 298 15821ft 314kts
17-May-20 08:38 35.962020 -116.047372 310 19169ft 268kts
17-May-20 08:39 36.019568 -116.113774 311 19886ft 303kts
17-May-20 08:40 36.084590 -116.188729 312 19886ft 333kts
17-May-20 08:41 36.154167 -116.269102 312 19879ft 348kts
17-May-20 08:42 36.225755 -116.352048 312 19878ft 354kts
17-May-20 08:43 36.298210 -116.436239 312 19879ft 357kts
17-May-20 08:44 36.370850 -116.520881 312 19878ft 359kts
17-May-20 08:45 36.443776 -116.606090 312 19878ft 360kts
17-May-20 08:46 36.516735 -116.691556 312 19881ft 360kts
17-May-20 08:47 36.594305 -116.770988 324 19881ft 366kts
17-May-20 08:48 36.681425 -116.837259 324 19882ft 367kts
17-May-20 08:49 36.768550 -116.903481 324 19882ft 367kts
17-May-20 08:50 36.855725 -116.969983 323 19898ft 365kts
17-May-20 08:51 36.942067 -117.036034 323 19934ft 363kts
17-May-20 08:52 37.027800 -117.101806 323 19947ft 362kts
17-May-20 08:53 37.114012 -117.168132 324 19942ft 365kts
17-May-20 08:54 37.200963 -117.235188 324 19942ft 367kts
17-May-20 08:55 37.285788 -117.306115 304 19940ft 359kts
17-May-20 08:56 37.306283 -117.422356 270 19928ft 343kts
17-May-20 08:57 37.312517 -117.542378 270 19891ft 344kts
17-May-20 08:58 37.319373 -117.662819 269 19888ft 347kts
17-May-20 08:59 37.326414 -117.784230 269 19889ft 348kts
17-May-20 09:00 37.333347 -117.905606 269 19889ft 348kts
17-May-20 09:01 37.340145 -118.026857 269 19888ft 348kts
17-May-20 09:02 37.346841 -118.148568 269 19888ft 348kts
17-May-20 09:03 37.353407 -118.270205 269 19888ft 348kts
17-May-20 09:04 37.359828 -118.391504 269 19888ft 348kts
17-May-20 09:05 37.366137 -118.513044 269 19888ft 348kts
17-May-20 09:06 37.372330 -118.634735 269 19925ft 347kts
17-May-20 09:07 37.378359 -118.755721 268 20005ft 346kts
17-May-20 09:08 37.384248 -118.876413 267 20045ft 346kts
17-May-20 09:09 37.393167 -118.996893 276 20045ft 351kts
17-May-20 09:10 37.420275 -119.114892 277 20044ft 349kts
17-May-20 09:11 37.446841 -119.231919 277 20043ft 347kts
17-May-20 09:12 37.472691 -119.349035 276 20022ft 347kts
17-May-20 09:13 37.498366 -119.466227 277 19988ft 347kts
17-May-20 09:14 37.523970 -119.583668 277 19974ft 346kts
17-May-20 09:15 37.549231 -119.700157 276 19959ft 346kts
17-May-20 09:16 37.574593 -119.817643 276 19933ft 347kts
17-May-20 09:17 37.599963 -119.935074 276 19919ft 347kts
17-May-20 09:18 37.625458 -120.053097 276 19909ft 347kts
17-May-20 09:19 37.650890 -120.170552 276 19909ft 347kts
17-May-20 09:20 37.676355 -120.287913 276 19910ft 347kts
17-May-20 09:21 37.698976 -120.405516 260 19915ft 331kts
17-May-20 09:22 37.685012 -120.518560 253 19915ft 326kts
17-May-20 09:23 37.670073 -120.631593 253 19901ft 326kts
17-May-20 09:24 37.657191 -120.731539 252 19638ft 302kts
17-May-20 09:25 37.643260 -120.837857 252 18594ft 288kts
17-May-20 09:26 37.629969 -120.938273 253 17015ft 298kts
17-May-20 09:27 37.617675 -121.043130 255 15749ft 310kts
17-May-20 09:28 37.605876 -121.149414 256 14753ft 292kts
17-May-20 09:29 37.594939 -121.245579 256 13746ft 268kts
17-May-20 09:30 37.584242 -121.338083 256 12743ft 274kts
17-May-20 09:31 37.572935 -121.435627 257 11738ft 288kts
17-May-20 09:32 37.561298 -121.535789 258 10993ft 283kts
17-May-20 09:33 37.548707 -121.632468 252 9903ft 277kts
17-May-20 09:34 37.528124 -121.720446 249 8204ft 242kts
17-May-20 09:35 37.509451 -121.798758 248 6986ft 218kts
17-May-20 09:36 37.493206 -121.866909 252 6987ft 209kts
17-May-20 09:37 37.495005 -121.949426 269 6464ft 237kts
17-May-20 09:38 37.499655 -122.027821 270 4955ft 216kts
17-May-20 09:39 37.505434 -122.099180 286 3445ft 198kts
17-May-20 09:40 37.529941 -122.159794 296 1936ft 190kts
17-May-20 09:41 37.551996 -122.210973 295 1793ft 161kts
17-May-20 09:42 37.573677 -122.262424 296 1683ft 155kts
17-May-20 09:43 37.590852 -122.303223 298 1012ft 105kts
17-May-20 09:44 37.603433 -122.333095 299 521ft 98kts
17-May-20 09:45 37.616819 -122.365029 299 33ft 101kts
17-May-20 09:46 37.622118 -122.375784 43 13ft 5kts
17-May-20 09:47 37.622929 -122.375826 299 13ft 8kts
17-May-20 09:48 37.624443 -122.376212 27 12ft 0kts
17-May-20 09:49 37.624443 -122.376212 27 12ft 0kts
17-May-20 09:50 37.624443 -122.376212 27 12ft 0kts
17-May-20 09:51 37.624443 -122.376212 27 12ft 0kts
17-May-20 09:52 37.624443 -122.376212 27 12ft 0kts
17-May-20 09:53 37.624443 -122.376212 27 12ft 0kts
17-May-20 09:54 37.624443 -122.376212 27 12ft 0kts
17-May-20 09:55 37.624443 -122.376212 27 12ft 0kts
17-May-20 09:56 37.624443 -122.376212 27 12ft 0kts

Navigation Log

Ident Type
Flight plan parsing failed, navigation log unavailable